Time;durP1;ratioP1;P1;durP2;ratioP2;P2;SDS_P1;SDS_P2;PMS_P1;PMS_P2;Temp;Humidity;BMP_temperature;BMP_pressure;BME280_temperature;BME280_humidity;BME280_pressure;Samples;Min_cycle;Max_cycle;Signal;HPM_P1;HPM_P2
2024/04/08 00:01:46;;;;;;;4.93;0.80;;;13.90;99.90;;;;;;5032087;28;20025;-89
2024/04/08 00:04:11;;;;;;;2.60;0.75;;;13.90;99.90;;;;;;5043159;28;20059;-89
2024/04/08 00:06:37;;;;;;;4.97;0.70;;;13.90;99.90;;;;;;5051706;28;20029;-89
2024/04/08 00:09:03;;;;;;;3.67;0.95;;;13.90;99.90;;;;;;5051476;28;20501;-89
2024/04/08 00:11:29;;;;;;;3.75;0.80;;;13.80;99.90;;;;;;5036934;28;20037;-89
2024/04/08 00:13:55;;;;;;;3.53;0.73;;;13.80;99.90;;;;;;5014135;28;20371;-89
2024/04/08 00:16:23;;;;;;;2.70;0.60;;;13.80;99.90;;;;;;5051590;28;20051;-88
2024/04/08 00:18:49;;;;;;;7.05;0.90;;;13.80;99.90;;;;;;5033708;28;20021;-90
2024/04/08 00:21:15;;;;;;;4.50;0.80;;;13.70;99.90;;;;;;5032703;28;20116;-88
2024/04/08 00:23:42;;;;;;;3.95;0.80;;;13.70;99.90;;;;;;5031615;28;20112;-88
2024/04/08 00:26:08;;;;;;;6.38;0.70;;;13.70;99.90;;;;;;5040690;28;20448;-88
2024/04/08 00:28:34;;;;;;;2.55;0.70;;;13.70;99.90;;;;;;5055571;28;20021;-89
2024/04/08 00:31:07;;;;;;;3.20;0.75;;;13.70;99.90;;;;;;5055076;28;20462;-89
2024/04/08 00:33:34;;;;;;;5.22;0.70;;;13.60;99.90;;;;;;5054712;28;20059;-88
2024/04/08 00:36:00;;;;;;;6.13;0.98;;;13.60;99.90;;;;;;5049146;28;20021;-89
2024/04/08 00:38:26;;;;;;;3.35;1.02;;;13.60;99.90;;;;;;5055401;28;20411;-89
2024/04/08 00:40:52;;;;;;;3.35;1.00;;;13.60;99.90;;;;;;5054381;28;20452;-89
2024/04/08 00:43:18;;;;;;;5.70;1.05;;;13.60;99.90;;;;;;5054922;28;20065;-89
2024/04/08 00:45:46;;;;;;;5.90;0.95;;;13.60;99.90;;;;;;5035938;28;20089;-89
2024/04/08 00:48:14;;;;;;;3.10;0.93;;;13.50;99.90;;;;;;5042273;28;20059;-89
2024/04/08 00:50:44;;;;;;;5.15;1.20;;;13.50;99.90;;;;;;5055027;28;20027;-89
2024/04/08 00:53:11;;;;;;;3.95;1.00;;;13.50;99.90;;;;;;5039504;28;20029;-89
2024/04/08 00:55:37;;;;;;;6.30;0.85;;;13.50;99.90;;;;;;5034573;28;20030;-89
2024/04/08 00:58:04;;;;;;;5.00;1.10;;;13.40;99.90;;;;;;5052655;28;20405;-89
2024/04/08 01:00:30;;;;;;;4.60;1.00;;;13.40;99.90;;;;;;5036791;28;20116;-89
2024/04/08 01:02:58;;;;;;;6.40;0.90;;;13.40;99.90;;;;;;5054072;28;20421;-89
2024/04/08 01:05:24;;;;;;;4.30;1.67;;;13.40;99.90;;;;;;5054722;28;20032;-89
2024/04/08 01:07:50;;;;;;;3.05;0.80;;;13.40;99.90;;;;;;5053733;28;20106;-89
2024/04/08 01:10:17;;;;;;;4.13;0.90;;;13.40;99.90;;;;;;5054428;28;20025;-89
2024/04/08 01:12:42;;;;;;;3.80;0.70;;;13.40;99.90;;;;;;5054172;28;20103;-89
2024/04/08 01:15:08;;;;;;;4.80;0.80;;;13.30;99.90;;;;;;5054557;28;20473;-89
2024/04/08 01:17:34;;;;;;;5.13;0.60;;;13.30;99.90;;;;;;5035789;28;20029;-88
2024/04/08 01:19:59;;;;;;;2.63;0.70;;;13.30;99.90;;;;;;5053981;28;20052;-89
2024/04/08 01:22:30;;;;;;;3.85;0.90;;;13.30;99.90;;;;;;5053113;28;20104;-89
2024/04/08 01:24:58;;;;;;;2.55;0.88;;;13.30;99.90;;;;;;5041213;28;20033;-89
2024/04/08 01:27:24;;;;;;;2.83;0.60;;;13.30;99.90;;;;;;5036796;28;20028;-88
2024/04/08 01:29:50;;;;;;;4.18;1.00;;;13.30;99.90;;;;;;5054244;28;20033;-88
2024/04/08 01:32:16;;;;;;;6.85;1.15;;;13.30;99.90;;;;;;5053971;28;20024;-89
2024/04/08 01:34:41;;;;;;;6.05;1.15;;;13.30;99.90;;;;;;5054080;28;20028;-88
2024/04/08 01:37:07;;;;;;;3.47;0.80;;;13.30;99.90;;;;;;5038476;28;20057;-88
2024/04/08 01:39:32;;;;;;;2.92;0.73;;;13.30;99.90;;;;;;5052032;28;20036;-88
2024/04/08 01:41:58;;;;;;;4.90;1.00;;;13.30;99.90;;;;;;5053847;28;20481;-89
2024/04/08 01:44:24;;;;;;;6.40;1.40;;;13.20;99.90;;;;;;5054129;28;20072;-89
2024/04/08 01:46:49;;;;;;;3.97;1.02;;;13.20;99.90;;;;;;5042425;28;20029;-89
2024/04/08 01:49:15;;;;;;;4.55;1.05;;;13.20;99.90;;;;;;5033579;28;20052;-89
2024/04/08 01:51:41;;;;;;;3.50;1.17;;;13.20;99.90;;;;;;5041181;28;20560;-88
2024/04/08 01:54:11;;;;;;;3.88;1.33;;;13.20;99.90;;;;;;5046810;28;20066;-88
2024/04/08 01:56:40;;;;;;;3.83;1.10;;;13.20;99.90;;;;;;5033926;28;20117;-88
2024/04/08 01:59:05;;;;;;;2.92;0.90;;;13.20;99.90;;;;;;5046656;28;20036;-88
2024/04/08 02:01:31;;;;;;;5.00;1.15;;;13.20;99.90;;;;;;5053839;28;20026;-88
2024/04/08 02:03:57;;;;;;;4.57;1.17;;;13.20;99.90;;;;;;5052963;28;20134;-88
2024/04/08 02:06:22;;;;;;;4.80;0.82;;;13.20;99.90;;;;;;5044982;28;20026;-88
2024/04/08 02:08:48;;;;;;;3.45;1.48;;;13.20;99.90;;;;;;5015512;28;20072;-89
2024/04/08 02:11:13;;;;;;;2.83;1.05;;;13.20;99.90;;;;;;5040008;28;20048;-87
2024/04/08 02:13:41;;;;;;;2.47;0.90;;;13.20;99.90;;;;;;5053501;28;20460;-89
2024/04/08 02:16:07;;;;;;;3.45;0.80;;;13.20;99.90;;;;;;5051429;28;20013;-89
2024/04/08 02:18:36;;;;;;;3.55;1.27;;;13.20;99.90;;;;;;5053243;28;20040;-88
2024/04/08 02:21:02;;;;;;;6.90;1.20;;;13.10;99.90;;;;;;5052712;28;20035;-90
2024/04/08 02:23:28;;;;;;;3.50;1.00;;;13.10;99.90;;;;;;5038173;28;20470;-89
2024/04/08 02:25:53;;;;;;;5.53;1.88;;;13.10;99.90;;;;;;5051627;28;20108;-88
2024/04/08 02:28:19;;;;;;;3.38;1.10;;;13.10;99.90;;;;;;5053180;28;20032;-88
2024/04/08 02:30:45;;;;;;;4.38;1.45;;;13.10;99.90;;;;;;5040647;28;20429;-88
2024/04/08 02:33:10;;;;;;;4.85;1.25;;;13.10;99.90;;;;;;5032793;28;20037;-88
2024/04/08 02:35:37;;;;;;;3.75;1.50;;;13.10;99.90;;;;;;5015420;28;20021;-89
2024/04/08 02:38:04;;;;;;;4.20;1.30;;;13.10;99.90;;;;;;5032740;28;20116;-89
2024/04/08 02:40:32;;;;;;;4.28;1.02;;;13.10;99.90;;;;;;5033015;28;20449;-89
2024/04/08 02:42:58;;;;;;;5.18;1.52;;;13.10;99.90;;;;;;5032364;28;20022;-90
2024/04/08 02:45:24;;;;;;;3.08;1.33;;;13.10;99.90;;;;;;5033085;28;20033;-88
2024/04/08 02:47:50;;;;;;;3.35;1.38;;;13.10;99.90;;;;;;5053048;28;20035;-88
2024/04/08 02:50:16;;;;;;;5.13;1.40;;;13.10;99.90;;;;;;5051790;28;20473;-89
2024/04/08 02:52:42;;;;;;;5.18;1.58;;;13.10;99.90;;;;;;5052469;28;20436;-88
2024/04/08 02:55:07;;;;;;;6.60;1.83;;;13.10;99.90;;;;;;5052369;28;20037;-89
2024/04/08 02:57:33;;;;;;;6.22;1.85;;;13.10;99.90;;;;;;5036245;28;20045;-89
2024/04/08 02:59:58;;;;;;;6.15;2.60;;;13.20;99.90;;;;;;5014416;28;20123;-89
2024/04/08 03:02:25;;;;;;;8.40;2.22;;;13.10;99.90;;;;;;5014745;28;20028;-88
2024/04/08 03:04:51;;;;;;;4.45;1.85;;;13.10;99.90;;;;;;5031944;28;20041;-89
2024/04/08 03:07:17;;;;;;;3.85;1.80;;;13.10;99.90;;;;;;5049576;28;20044;-88
2024/04/08 03:09:42;;;;;;;5.43;2.28;;;13.10;99.90;;;;;;5052172;28;20659;-88
2024/04/08 03:12:08;;;;;;;4.93;2.08;;;13.10;99.90;;;;;;5037949;28;20056;-88
2024/04/08 03:14:34;;;;;;;5.00;1.90;;;13.20;99.90;;;;;;5014887;28;20068;-89
2024/04/08 03:17:00;;;;;;;5.97;2.20;;;13.20;99.90;;;;;;5042526;28;20530;-88
2024/04/08 03:19:25;;;;;;;4.40;1.90;;;13.20;99.90;;;;;;5052198;28;20029;-89
2024/04/08 03:21:51;;;;;;;6.72;2.67;;;13.10;99.90;;;;;;5051650;28;20109;-88
2024/04/08 03:24:16;;;;;;;4.95;2.53;;;13.20;99.90;;;;;;5051984;28;20051;-88
2024/04/08 03:26:42;;;;;;;6.00;2.25;;;13.20;99.90;;;;;;5034425;28;20056;-88
2024/04/08 03:29:07;;;;;;;4.97;2.10;;;13.20;99.90;;;;;;5051935;28;20032;-88
2024/04/08 03:31:33;;;;;;;5.50;2.20;;;13.20;99.90;;;;;;5034305;28;20434;-88
2024/04/08 03:33:59;;;;;;;5.60;2.78;;;13.20;99.90;;;;;;5033352;28;20025;-89
2024/04/08 03:36:24;;;;;;;8.90;2.58;;;13.10;99.90;;;;;;5051926;28;20032;-89
2024/04/08 03:38:50;;;;;;;9.07;3.58;;;13.10;99.90;;;;;;5051992;28;20404;-89
2024/04/08 03:41:16;;;;;;;5.57;2.78;;;13.20;99.90;;;;;;5052306;28;20031;-88
2024/04/08 03:43:41;;;;;;;10.35;3.85;;;13.10;99.90;;;;;;5043549;28;20045;-89
2024/04/08 03:46:07;;;;;;;5.18;3.10;;;13.20;99.90;;;;;;5044568;28;20051;-89
2024/04/08 03:48:33;;;;;;;5.57;2.95;;;13.20;99.90;;;;;;5051830;28;20559;-89
2024/04/08 03:51:09;;;;;;;8.77;4.00;;;13.20;99.90;;;;;;5051455;28;20043;-89
2024/04/08 03:53:35;;;;;;;10.90;4.28;;;13.20;99.90;;;;;;5034457;28;20392;-89
2024/04/08 03:56:08;;;;;;;9.70;4.07;;;13.20;99.90;;;;;;5031367;28;20044;-88
2024/04/08 03:58:34;;;;;;;11.02;4.95;;;13.20;99.90;;;;;;5044674;28;20028;-88
2024/04/08 04:01:00;;;;;;;9.32;3.97;;;13.20;99.90;;;;;;5053383;28;20017;-89
2024/04/08 04:03:26;;;;;;;12.10;4.50;;;13.10;99.90;;;;;;5053417;28;20585;-89
2024/04/08 04:05:51;;;;;;;6.13;3.78;;;13.20;99.90;;;;;;5041152;28;20055;-88
2024/04/08 04:08:17;;;;;;;10.02;4.43;;;13.20;99.90;;;;;;5055349;28;20057;-88
2024/04/08 04:10:44;;;;;;;10.43;4.88;;;13.20;99.90;;;;;;5046785;28;20021;-88
2024/04/08 04:13:10;;;;;;;10.15;4.25;;;13.20;99.90;;;;;;5037557;28;20022;-88
2024/04/08 04:15:35;;;;;;;6.72;4.25;;;13.20;99.90;;;;;;5043640;28;20497;-89
2024/04/08 04:18:01;;;;;;;13.75;4.35;;;13.10;99.90;;;;;;5042673;28;20481;-89
2024/04/08 04:20:37;;;;;;;9.75;3.80;;;13.20;99.90;;;;;;5047985;28;20029;-88
2024/04/08 04:23:02;;;;;;;9.73;3.97;;;13.10;99.90;;;;;;5017617;28;20092;-89
2024/04/08 04:25:28;;;;;;;8.07;3.97;;;13.10;99.90;;;;;;5038471;28;20033;-88
2024/04/08 04:27:54;;;;;;;9.55;3.33;;;13.20;99.90;;;;;;5055040;28;20025;-88
2024/04/08 04:30:19;;;;;;;8.55;3.88;;;13.10;99.90;;;;;;5045805;28;20025;-89
2024/04/08 04:32:45;;;;;;;8.13;3.85;;;13.10;99.90;;;;;;5017353;28;20030;-89
2024/04/08 04:35:11;;;;;;;8.52;3.63;;;13.10;99.90;;;;;;5017710;28;20117;-89
2024/04/08 04:37:36;;;;;;;9.70;3.72;;;13.10;99.90;;;;;;5045151;28;20087;-88
2024/04/08 04:40:02;;;;;;;7.35;3.65;;;13.10;99.90;;;;;;5034720;28;20029;-88
2024/04/08 04:42:28;;;;;;;7.70;3.58;;;13.00;99.90;;;;;;5049243;28;20107;-88
2024/04/08 04:44:53;;;;;;;6.10;2.95;;;12.90;99.90;;;;;;5054695;28;20401;-88
2024/04/08 04:47:19;;;;;;;15.60;4.35;;;12.90;99.90;;;;;;5051221;28;20048;-87
2024/04/08 04:49:44;;;;;;;9.55;4.20;;;12.80;99.90;;;;;;5055733;28;20059;-88
2024/04/08 04:52:12;;;;;;;6.85;3.13;;;12.80;99.90;;;;;;5054655;28;20387;-87
2024/04/08 04:54:38;;;;;;;7.75;4.15;;;12.70;99.90;;;;;;5054690;28;20035;-89
2024/04/08 04:57:04;;;;;;;6.80;3.72;;;12.70;99.90;;;;;;5039162;28;20025;-88
2024/04/08 04:59:30;;;;;;;10.13;4.03;;;12.70;99.90;;;;;;5035111;28;20040;-88
2024/04/08 05:01:56;;;;;;;7.18;3.88;;;12.70;99.90;;;;;;5047674;28;20022;-88
2024/04/08 05:04:21;;;;;;;6.60;4.03;;;12.60;99.90;;;;;;5054489;28;20051;-88
2024/04/08 05:06:47;;;;;;;7.65;4.07;;;12.60;99.90;;;;;;5053798;28;20020;-88
2024/04/08 05:09:13;;;;;;;7.72;3.80;;;12.50;99.90;;;;;;5034323;28;20120;-87
2024/04/08 05:11:39;;;;;;;8.82;4.15;;;12.50;99.90;;;;;;5028327;28;20373;-89
2024/04/08 05:14:05;;;;;;;6.32;3.85;;;12.50;99.90;;;;;;5049958;28;20025;-88
2024/04/08 05:16:31;;;;;;;8.70;4.40;;;12.60;99.90;;;;;;5054383;28;20036;-89
2024/04/08 05:18:57;;;;;;;9.95;4.30;;;12.60;99.90;;;;;;5054012;28;20354;-88
2024/04/08 05:21:22;;;;;;;7.13;3.90;;;12.70;99.90;;;;;;5052560;28;20077;-88
2024/04/08 05:23:49;;;;;;;12.25;4.95;;;12.70;99.90;;;;;;5034425;28;20113;-87
2024/04/08 05:26:16;;;;;;;9.20;5.30;;;12.70;99.90;;;;;;5047076;28;20025;-88
2024/04/08 05:28:41;;;;;;;9.57;4.20;;;12.80;99.90;;;;;;5052351;28;20029;-88
2024/04/08 05:31:07;;;;;;;11.50;4.65;;;12.90;99.90;;;;;;5034129;28;20028;-89
2024/04/08 05:33:33;;;;;;;13.70;5.10;;;12.80;99.90;;;;;;5033971;28;20437;-88
2024/04/08 05:35:59;;;;;;;9.48;4.90;;;12.80;99.90;;;;;;5034161;28;20025;-88
2024/04/08 05:38:24;;;;;;;8.20;4.43;;;12.90;99.90;;;;;;5043256;28;20024;-89
2024/04/08 05:40:50;;;;;;;14.13;5.47;;;12.90;99.90;;;;;;5040330;28;20083;-89
2024/04/08 05:43:16;;;;;;;8.07;4.70;;;12.90;99.90;;;;;;5046743;28;20068;-89
2024/04/08 05:45:42;;;;;;;11.70;5.05;;;13.00;99.90;;;;;;5043714;28;20033;-89
2024/04/08 05:48:08;;;;;;;10.25;5.07;;;13.10;99.90;;;;;;5053268;28;20048;-88
2024/04/08 05:50:34;;;;;;;10.52;5.70;;;13.10;99.90;;;;;;5053472;28;20056;-88
2024/04/08 05:53:00;;;;;;;9.38;5.57;;;13.10;99.90;;;;;;5035889;28;20388;-89
2024/04/08 05:55:28;;;;;;;9.15;5.57;;;13.10;99.90;;;;;;5035156;28;20025;-88
2024/04/08 05:57:54;;;;;;;13.48;7.03;;;13.20;99.90;;;;;;5016010;28;20061;-88
2024/04/08 06:00:19;;;;;;;12.85;5.32;;;13.20;99.90;;;;;;5039001;28;20143;-89
2024/04/08 06:02:50;;;;;;;9.93;6.03;;;13.20;99.90;;;;;;5033253;28;20033;-88
2024/04/08 06:05:20;;;;;;;16.02;6.72;;;13.20;99.90;;;;;;5049327;28;20393;-88
2024/04/08 06:07:48;;;;;;;12.45;6.65;;;13.20;99.90;;;;;;5039888;28;20052;-88
2024/04/08 06:10:15;;;;;;;9.07;5.82;;;13.20;99.90;;;;;;5033213;28;20179;-88
2024/04/08 06:12:41;;;;;;;11.18;6.45;;;13.20;99.90;;;;;;5033563;28;20022;-89
2024/04/08 06:15:07;;;;;;;10.00;6.30;;;13.20;99.90;;;;;;5048547;28;20021;-89
2024/04/08 06:17:32;;;;;;;11.73;6.18;;;13.30;99.90;;;;;;5035506;28;20064;-88
2024/04/08 06:19:58;;;;;;;10.20;5.70;;;13.30;99.90;;;;;;5052885;28;20050;-89
2024/04/08 06:22:23;;;;;;;10.40;5.88;;;13.40;99.90;;;;;;5052718;28;20025;-88
2024/04/08 06:24:49;;;;;;;10.55;6.60;;;13.40;99.90;;;;;;5052410;28;20090;-88
2024/04/08 06:27:14;;;;;;;9.68;6.40;;;13.50;99.90;;;;;;5052757;28;20021;-88
2024/04/08 06:29:40;;;;;;;12.73;6.57;;;13.50;99.90;;;;;;5053238;28;20029;-88
2024/04/08 06:32:06;;;;;;;15.45;7.50;;;13.60;99.90;;;;;;5050407;28;20044;-88
2024/04/08 06:34:31;;;;;;;10.98;6.20;;;13.70;99.90;;;;;;5052802;28;20391;-88
2024/04/08 06:36:57;;;;;;;14.95;6.80;;;13.70;99.90;;;;;;5052238;28;20025;-88
2024/04/08 06:39:22;;;;;;;9.07;6.38;;;13.80;99.90;;;;;;5053178;28;20098;-87
2024/04/08 06:41:48;;;;;;;10.95;5.88;;;13.90;99.90;;;;;;5051957;28;20103;-88
2024/04/08 06:44:15;;;;;;;11.60;5.75;;;13.90;99.90;;;;;;5052604;28;20040;-87
2024/04/08 06:46:40;;;;;;;10.15;6.40;;;14.00;99.90;;;;;;5052372;28;20521;-89
2024/04/08 06:49:06;;;;;;;8.95;6.45;;;14.10;99.90;;;;;;5052543;28;20104;-87
2024/04/08 06:51:31;;;;;;;11.57;6.60;;;14.10;99.90;;;;;;5039483;28;20080;-88
2024/04/08 06:53:57;;;;;;;11.00;6.32;;;14.20;99.90;;;;;;5034289;28;20099;-88
2024/04/08 06:56:22;;;;;;;11.68;6.75;;;14.20;99.90;;;;;;5035128;28;20025;-88
2024/04/08 06:58:48;;;;;;;10.65;6.45;;;14.20;99.90;;;;;;5052416;28;20028;-88
2024/04/08 07:01:14;;;;;;;9.85;7.32;;;14.20;99.90;;;;;;5052122;28;20032;-88
2024/04/08 07:05:07;;;;;;;12.13;5.50;;;14.20;99.90;;;;;;5544353;25;20336;-85
2024/04/08 07:07:33;;;;;;;13.05;7.80;;;14.20;99.90;;;;;;5498821;25;19999;-85
2024/04/08 07:09:59;;;;;;;13.35;6.95;;;14.30;99.90;;;;;;5490122;25;20009;-85
2024/04/08 07:12:24;;;;;;;10.63;7.32;;;14.40;99.90;;;;;;5488665;26;20076;-85
2024/04/08 07:14:51;;;;;;;7.70;5.20;;;14.50;99.90;;;;;;5507659;26;19998;-85
2024/04/08 07:17:17;;;;;;;11.32;6.53;;;14.60;99.90;;;;;;5475279;26;19998;-85
2024/04/08 07:19:44;;;;;;;8.73;5.55;;;14.70;99.90;;;;;;5474907;26;19998;-85
2024/04/08 07:22:09;;;;;;;7.07;5.07;;;14.70;99.90;;;;;;5474389;25;20172;-85
2024/04/08 07:24:35;;;;;;;8.75;5.28;;;14.80;99.90;;;;;;5521290;25;20043;-85
2024/04/08 07:27:01;;;;;;;6.47;4.18;;;14.90;99.90;;;;;;5474251;26;20005;-85
2024/04/08 07:29:27;;;;;;;10.75;5.43;;;15.00;99.90;;;;;;5474724;26;19998;-85
2024/04/08 07:31:52;;;;;;;7.50;4.93;;;15.20;99.90;;;;;;5474343;25;20062;-85
2024/04/08 07:34:19;;;;;;;7.25;5.28;;;15.30;99.90;;;;;;5507514;26;20001;-85
2024/04/08 07:36:45;;;;;;;10.13;4.32;;;15.50;99.90;;;;;;5475023;25;20445;-84
2024/04/08 07:39:11;;;;;;;7.00;4.50;;;15.60;99.90;;;;;;5506707;26;19998;-85
2024/04/08 07:41:37;;;;;;;7.22;4.53;;;15.70;99.90;;;;;;5507214;25;20502;-85
2024/04/08 07:44:03;;;;;;;8.70;4.47;;;15.80;99.90;;;;;;5474383;25;20009;-85
2024/04/08 07:46:28;;;;;;;8.60;4.78;;;15.90;99.90;;;;;;5474842;26;19997;-85
2024/04/08 07:48:54;;;;;;;6.70;4.03;;;16.00;99.90;;;;;;5474410;26;20344;-84
2024/04/08 07:51:20;;;;;;;6.97;4.20;;;16.10;99.90;;;;;;5506839;26;20000;-85
2024/04/08 07:53:45;;;;;;;8.38;3.33;;;16.20;99.90;;;;;;5507369;26;20058;-85
2024/04/08 07:56:11;;;;;;;9.43;5.10;;;16.30;99.90;;;;;;5474266;26;20043;-85
2024/04/08 07:58:37;;;;;;;7.40;3.70;;;16.40;99.90;;;;;;5506916;26;20435;-85
2024/04/08 08:01:03;;;;;;;7.45;3.55;;;16.50;99.90;;;;;;5506761;26;20002;-84
2024/04/08 08:03:29;;;;;;;10.20;4.13;;;16.50;99.90;;;;;;5522053;25;19993;-85
2024/04/08 08:05:55;;;;;;;6.72;3.42;;;16.60;99.90;;;;;;5529021;25;20048;-85
2024/04/08 08:08:21;;;;;;;6.20;3.55;;;16.70;99.90;;;;;;5468064;26;20005;-84
2024/04/08 08:10:47;;;;;;;8.02;3.25;;;16.80;99.90;;;;;;5470023;26;20001;-84
2024/04/08 08:13:12;;;;;;;5.68;3.30;;;16.90;99.90;;;;;;5468109;26;20003;-84
2024/04/08 08:15:38;;;;;;;9.27;3.58;;;16.90;99.90;;;;;;5458224;26;20010;-84
2024/04/08 08:18:03;;;;;;;6.72;3.03;;;17.00;99.90;;;;;;5519664;26;19994;-85
2024/04/08 08:20:30;;;;;;;9.10;3.17;;;17.00;99.90;;;;;;5489886;26;20102;-84
2024/04/08 08:23:00;;;;;;;8.68;2.88;;;17.10;99.90;;;;;;5496213;26;20061;-85
2024/04/08 08:25:26;;;;;;;5.15;3.05;;;17.10;99.90;;;;;;5528039;26;19994;-85
2024/04/08 08:27:52;;;;;;;6.40;3.08;;;17.10;99.90;;;;;;5510292;25;20379;-84
2024/04/08 08:30:18;;;;;;;6.13;3.13;;;17.30;99.90;;;;;;5490545;26;20002;-84
2024/04/08 08:32:44;;;;;;;7.72;2.50;;;17.40;99.90;;;;;;5490390;26;19994;-85
2024/04/08 08:35:10;;;;;;;9.75;3.40;;;17.40;99.90;;;;;;5488157;26;20330;-84
2024/04/08 08:37:36;;;;;;;6.72;3.17;;;17.40;99.90;;;;;;5488707;26;20011;-84
2024/04/08 08:40:02;;;;;;;7.25;3.22;;;17.50;99.90;;;;;;5490153;26;20013;-84
2024/04/08 08:42:29;;;;;;;8.38;3.22;;;17.50;99.90;;;;;;5488823;26;20424;-85
2024/04/08 08:44:57;;;;;;;5.07;2.53;;;17.40;99.90;;;;;;5488214;26;20074;-84
2024/04/08 08:47:23;;;;;;;4.82;2.10;;;17.40;99.90;;;;;;5488704;26;20070;-84
2024/04/08 08:49:54;;;;;;;4.88;2.45;;;17.50;99.90;;;;;;5488187;26;19998;-84
2024/04/08 08:52:20;;;;;;;4.65;2.15;;;17.50;99.90;;;;;;5484968;26;20017;-84
2024/04/08 08:54:46;;;;;;;5.68;2.42;;;17.50;99.90;;;;;;5489904;26;19998;-85
2024/04/08 08:57:12;;;;;;;4.20;1.95;;;17.50;99.90;;;;;;5487736;26;20005;-84
2024/04/08 08:59:40;;;;;;;5.93;2.67;;;17.40;99.90;;;;;;5488375;26;20070;-85
2024/04/08 09:02:11;;;;;;;5.65;2.33;;;17.40;99.90;;;;;;5489446;26;20461;-84
2024/04/08 09:04:37;;;;;;;5.68;2.20;;;17.50;99.90;;;;;;5489162;26;19998;-84
2024/04/08 09:07:02;;;;;;;6.00;3.03;;;17.60;99.90;;;;;;5489538;26;20342;-84
2024/04/08 09:09:28;;;;;;;7.20;2.45;;;17.70;99.90;;;;;;5489577;26;20420;-85
2024/04/08 09:11:53;;;;;;;5.43;2.65;;;17.90;99.90;;;;;;5474607;26;19995;-84
2024/04/08 09:14:19;;;;;;;6.07;2.55;;;17.90;99.90;;;;;;5451978;26;20659;-85
2024/04/08 09:16:48;;;;;;;4.15;2.22;;;17.90;99.90;;;;;;5481481;25;22546;-84
2024/04/08 09:19:14;;;;;;;3.92;2.17;;;18.00;99.90;;;;;;5459976;26;20463;-84
2024/04/08 09:21:40;;;;;;;5.15;2.05;;;18.20;99.90;;;;;;5484318;26;19998;-84
2024/04/08 09:24:07;;;;;;;5.53;2.03;;;18.30;99.90;;;;;;5486250;26;20009;-84
2024/04/08 09:26:33;;;;;;;5.80;2.45;;;18.30;99.90;;;;;;5475710;26;20051;-83
2024/04/08 09:29:00;;;;;;;3.83;2.42;;;18.40;99.90;;;;;;5510783;26;19998;-84
2024/04/08 09:31:29;;;;;;;8.50;2.42;;;18.30;99.90;;;;;;5483993;26;20008;-84
2024/04/08 09:33:55;;;;;;;5.65;2.75;;;18.20;99.90;;;;;;5484094;26;20002;-82
2024/04/08 09:36:22;;;;;;;6.63;2.65;;;18.30;99.90;;;;;;5481561;26;20030;-83
2024/04/08 09:38:50;;;;;;;7.25;3.42;;;18.50;99.90;;;;;;5480045;26;20450;-83
2024/04/08 09:41:17;;;;;;;6.15;3.20;;;18.50;99.90;;;;;;5484673;26;20043;-83
2024/04/08 09:43:45;;;;;;;6.85;2.65;;;18.60;99.90;;;;;;5454637;26;19995;-82
2024/04/08 09:46:13;;;;;;;5.38;2.22;;;18.60;99.90;;;;;;5472910;26;20442;-84
2024/04/08 09:48:40;;;;;;;7.28;2.88;;;18.50;99.90;;;;;;5470819;26;20025;-83
2024/04/08 09:51:09;;;;;;;7.55;2.47;;;18.50;99.90;;;;;;5487908;26;20450;-82
2024/04/08 09:53:35;;;;;;;4.28;2.63;;;18.70;99.90;;;;;;5484400;26;20026;-84
2024/04/08 09:56:09;;;;;;;5.03;2.40;;;18.80;99.90;;;;;;5480252;26;20013;-86
2024/04/08 09:58:39;;;;;;;4.00;1.85;;;18.90;99.90;;;;;;5484604;26;20012;-87
2024/04/08 10:01:05;;;;;;;7.50;3.20;;;18.90;99.90;;;;;;5455837;26;20049;-87
2024/04/08 10:03:51;;;;;;;5.35;2.60;;;18.90;99.90;;;;;;5474142;26;19990;-87
2024/04/08 10:06:20;;;;;;;5.55;3.63;;;18.90;99.90;;;;;;5482859;26;20044;-86
2024/04/08 10:08:47;;;;;;;6.03;3.17;;;18.90;99.90;;;;;;5482581;26;20026;-86
2024/04/08 10:11:14;;;;;;;6.97;3.10;;;18.90;99.90;;;;;;5480801;26;20012;-86
2024/04/08 10:13:49;;;;;;;6.82;4.15;;;18.90;99.90;;;;;;5466820;26;20506;-86
2024/04/08 10:16:16;;;;;;;9.65;3.50;;;18.90;99.90;;;;;;5479798;26;19998;-86
2024/04/08 10:18:55;;;;;;;5.72;3.17;;;18.90;99.90;;;;;;5499733;26;20013;-86
2024/04/08 10:21:26;;;;;;;9.52;3.75;;;19.00;99.90;;;;;;5479011;26;20009;-86
2024/04/08 10:23:52;;;;;;;5.53;4.50;;;19.10;99.90;;;;;;5483341;26;20066;-86
2024/04/08 10:26:18;;;;;;;11.85;5.05;;;19.20;99.90;;;;;;5487992;26;19998;-85
2024/04/08 10:28:44;;;;;;;13.48;6.05;;;19.00;99.90;;;;;;5470841;26;20003;-86
2024/04/08 10:31:12;;;;;;;11.52;6.72;;;19.00;99.90;;;;;;5452248;26;20006;-85
2024/04/08 10:33:38;;;;;;;14.05;7.40;;;19.10;99.90;;;;;;5483782;26;20030;-86
2024/04/08 10:36:04;;;;;;;13.80;8.40;;;19.20;99.90;;;;;;5491319;26;19998;-86
2024/04/08 10:38:30;;;;;;;12.90;7.53;;;19.30;99.90;;;;;;5486233;26;20069;-85
2024/04/08 10:41:03;;;;;;;9.25;8.02;;;19.30;99.90;;;;;;5464874;26;20006;-86
2024/04/08 10:43:31;;;;;;;9.23;6.78;;;19.50;99.90;;;;;;5480434;26;20006;-86
2024/04/08 10:45:57;;;;;;;9.23;7.85;;;19.80;99.90;;;;;;5474910;26;20014;-87
2024/04/08 10:48:23;;;;;;;11.52;9.55;;;19.80;99.90;;;;;;5475868;26;19994;-86
2024/04/08 10:50:48;;;;;;;11.90;10.45;;;20.00;99.90;;;;;;5461938;26;20022;-87
2024/04/08 10:53:14;;;;;;;13.80;10.73;;;20.30;99.90;;;;;;5484214;26;20787;-87
2024/04/08 10:55:40;;;;;;;12.98;9.93;;;20.40;99.90;;;;;;5486652;26;19998;-87
2024/04/08 10:58:06;;;;;;;15.00;12.35;;;20.60;99.90;;;;;;5485492;26;20047;-87
2024/04/08 11:00:32;;;;;;;14.82;13.32;;;20.70;99.90;;;;;;5485433;26;20679;-88
2024/04/08 11:02:59;;;;;;;18.48;14.93;;;20.80;99.90;;;;;;5477208;26;20003;-88
2024/04/08 11:05:25;;;;;;;15.98;14.07;;;20.70;99.90;;;;;;5481160;26;20374;-89
2024/04/08 11:07:51;;;;;;;17.63;15.40;;;20.60;99.90;;;;;;5484618;26;20002;-89
2024/04/08 11:10:18;;;;;;;18.13;15.02;;;20.60;99.90;;;;;;5483613;26;20043;-88
2024/04/08 11:12:44;;;;;;;18.35;14.50;;;20.60;99.90;;;;;;5473803;26;20331;-88
2024/04/08 11:15:12;;;;;;;18.45;15.48;;;20.70;99.90;;;;;;5483534;26;20009;-88
2024/04/08 11:17:38;;;;;;;18.77;16.10;;;20.80;99.90;;;;;;5480655;26;20010;-89
2024/04/08 11:20:06;;;;;;;19.05;17.05;;;20.90;99.90;;;;;;5483962;26;20396;-89
2024/04/08 11:22:33;;;;;;;19.00;17.00;;;20.90;99.90;;;;;;5460906;26;20093;-88
2024/04/08 11:24:59;;;;;;;17.52;14.98;;;20.90;99.90;;;;;;5465866;26;19998;-88
2024/04/08 11:27:28;;;;;;;14.80;13.30;;;20.90;99.90;;;;;;5475008;26;20073;-88
2024/04/08 11:29:54;;;;;;;14.48;12.30;;;20.80;99.90;;;;;;5474582;26;19998;-89
2024/04/08 11:32:20;;;;;;;13.90;11.82;;;20.80;99.90;;;;;;5486930;26;20002;-89
2024/04/08 11:34:46;;;;;;;14.82;11.77;;;20.70;99.90;;;;;;5474538;26;19995;-88
2024/04/08 11:37:12;;;;;;;13.30;11.02;;;20.80;99.90;;;;;;5472385;26;20005;-89
2024/04/08 11:39:42;;;;;;;11.63;9.65;;;20.80;99.90;;;;;;5484067;26;20003;-88
2024/04/08 11:42:09;;;;;;;12.02;8.75;;;20.80;99.90;;;;;;5468432;26;20013;-89
2024/04/08 11:44:36;;;;;;;13.80;8.80;;;20.70;99.90;;;;;;5487165;26;20001;-89
2024/04/08 11:47:02;;;;;;;10.15;7.90;;;20.70;99.90;;;;;;5481056;26;20002;-89
2024/04/08 11:49:30;;;;;;;9.55;6.63;;;20.60;99.90;;;;;;5486386;26;20055;-89
2024/04/08 11:51:56;;;;;;;6.70;5.43;;;20.70;99.90;;;;;;5490041;26;20474;-89
2024/04/08 11:54:22;;;;;;;5.70;4.80;;;20.60;99.90;;;;;;5488189;26;20005;-89
2024/04/08 11:56:47;;;;;;;8.60;5.32;;;20.60;99.90;;;;;;5472021;26;20035;-90
2024/04/08 11:59:13;;;;;;;7.18;4.85;;;20.80;99.90;;;;;;5453754;26;20002;-89
2024/04/08 12:01:41;;;;;;;9.70;4.97;;;20.90;99.90;;;;;;5465565;26;19995;-89
2024/04/08 12:04:07;;;;;;;4.85;3.75;;;21.10;99.90;;;;;;5473005;26;19994;-90
2024/04/08 12:06:32;;;;;;;7.40;3.75;;;21.20;99.90;;;;;;5474933;26;20034;-89
2024/04/08 12:08:58;;;;;;;9.35;4.22;;;21.30;99.90;;;;;;5460637;26;20460;-89
2024/04/08 12:11:24;;;;;;;5.65;3.60;;;21.40;99.90;;;;;;5493941;26;19994;-87
2024/04/08 12:13:50;;;;;;;6.10;3.70;;;21.30;99.90;;;;;;5481204;26;20012;-89
2024/04/08 12:16:16;;;;;;;7.95;3.80;;;21.30;99.90;;;;;;5477883;26;20010;-88
2024/04/08 12:18:45;;;;;;;7.03;3.83;;;21.20;99.90;;;;;;5473737;26;19999;-88
2024/04/08 12:21:11;;;;;;;6.20;4.15;;;21.10;99.90;;;;;;5484875;26;20461;-88
2024/04/08 12:23:37;;;;;;;8.18;4.28;;;20.90;99.90;;;;;;5489377;26;20071;-88
2024/04/08 12:26:02;;;;;;;6.00;3.80;;;20.80;99.90;;;;;;5467695;26;20042;-88
2024/04/08 12:28:28;;;;;;;6.13;3.80;;;20.60;99.90;;;;;;5476556;26;19999;-88
2024/04/08 12:30:54;;;;;;;7.63;4.10;;;20.60;99.90;;;;;;5476768;26;20453;-89
2024/04/08 12:33:20;;;;;;;6.65;4.43;;;20.40;99.90;;;;;;5484432;26;19997;-88
2024/04/08 12:35:46;;;;;;;7.50;2.83;;;20.20;99.90;;;;;;5526729;25;20001;-88
2024/04/08 12:38:13;;;;;;;5.82;2.80;;;20.10;99.90;;;;;;5493740;26;20003;-88
2024/04/08 12:40:42;;;;;;;5.20;3.35;;;20.10;99.90;;;;;;5473213;26;20038;-88